Time;durP1;ratioP1;P1;durP2;ratioP2;P2;SDS_P1;SDS_P2;PMS_P1;PMS_P2;Temp;Humidity;BMP_temperature;BMP_pressure;BME280_temperature;BME280_humidity;BME280_pressure;Samples;Min_cycle;Max_cycle;Signal;HPM_P1;HPM_P2
2022/06/22 00:01:20;;;;;;;11.15;7.80;;;13.70;99.90;;;;;;4898794;29;20056;-73
2022/06/22 00:03:52;;;;;;;12.80;7.68;;;13.70;99.90;;;;;;4897651;29;20069;-73
2022/06/22 00:06:43;;;;;;;11.27;7.50;;;13.60;99.90;;;;;;4898222;29;20048;-74
2022/06/22 00:09:23;;;;;;;11.13;7.50;;;13.60;99.90;;;;;;4898912;29;20044;-74
2022/06/22 00:11:50;;;;;;;9.57;7.07;;;13.60;99.90;;;;;;4898865;29;20055;-74
2022/06/22 00:14:24;;;;;;;11.13;7.32;;;13.50;99.90;;;;;;4899327;29;20430;-74
2022/06/22 00:16:54;;;;;;;11.43;7.53;;;13.50;99.90;;;;;;4897631;29;20056;-73
2022/06/22 00:19:39;;;;;;;9.57;7.53;;;13.40;99.90;;;;;;4898043;29;20083;-73
2022/06/22 00:22:05;;;;;;;13.07;7.97;;;13.40;99.90;;;;;;4899461;29;20037;-73
2022/06/22 00:24:37;;;;;;;8.98;7.22;;;13.40;99.90;;;;;;4898679;29;20051;-74
2022/06/22 00:27:15;;;;;;;10.32;7.28;;;13.30;99.90;;;;;;4913134;29;20052;-73
2022/06/22 00:29:40;;;;;;;11.23;7.65;;;13.30;99.90;;;;;;4898633;29;20095;-72
2022/06/22 00:32:27;;;;;;;13.77;8.48;;;13.30;99.90;;;;;;4898641;29;20051;-72
2022/06/22 00:34:53;;;;;;;11.50;8.25;;;13.20;99.90;;;;;;4898602;29;20124;-72
2022/06/22 00:37:30;;;;;;;10.95;7.15;;;13.20;99.90;;;;;;4899095;29;20052;-72
2022/06/22 00:40:01;;;;;;;9.90;6.93;;;13.10;99.90;;;;;;4897901;29;20108;-72
2022/06/22 00:42:31;;;;;;;11.48;7.50;;;13.10;99.90;;;;;;4898883;29;20112;-72
2022/06/22 00:45:08;;;;;;;8.60;7.07;;;13.10;99.90;;;;;;4899068;29;20400;-73
2022/06/22 00:47:45;;;;;;;9.40;7.22;;;13.10;99.90;;;;;;4898488;29;20059;-72
2022/06/22 00:50:19;;;;;;;8.85;6.75;;;13.00;99.90;;;;;;4898481;29;20049;-72
2022/06/22 00:52:53;;;;;;;9.48;7.03;;;13.00;99.90;;;;;;4898769;29;20048;-72
2022/06/22 00:55:40;;;;;;;9.77;7.95;;;13.00;99.90;;;;;;4898454;29;20068;-72
2022/06/22 00:58:28;;;;;;;10.45;7.32;;;13.00;99.90;;;;;;4898338;29;20063;-72
2022/06/22 01:01:35;;;;;;;9.88;7.53;;;13.00;99.90;;;;;;4898781;29;20045;-73
2022/06/22 01:04:35;;;;;;;10.73;7.97;;;12.90;99.90;;;;;;4879401;29;20057;-72
2022/06/22 01:07:30;;;;;;;10.93;7.97;;;12.80;99.90;;;;;;4890119;29;20120;-73
2022/06/22 01:10:04;;;;;;;11.05;7.13;;;12.70;99.90;;;;;;4898441;29;20052;-73
2022/06/22 01:12:33;;;;;;;;;;;12.70;99.90;;;;;;4898563;29;20049;-72
2022/06/22 01:15:02;;;;;;;11.82;8.60;;;12.70;99.90;;;;;;4897481;29;19924;-73
2022/06/22 01:17:43;;;;;;;11.70;8.50;;;12.70;99.90;;;;;;4900824;29;20080;-73
2022/06/22 01:20:40;;;;;;;14.43;8.80;;;12.60;99.90;;;;;;4901577;29;20485;-73
2022/06/22 01:23:41;;;;;;;12.40;9.07;;;12.60;99.90;;;;;;4901608;29;20056;-72
2022/06/22 01:26:24;;;;;;;11.32;8.98;;;12.60;99.90;;;;;;4902304;29;20123;-73
2022/06/22 01:28:52;;;;;;;11.30;8.27;;;12.60;99.90;;;;;;4901985;29;20143;-72
2022/06/22 01:31:18;;;;;;;12.80;7.93;;;12.50;99.90;;;;;;4900233;29;20053;-73
2022/06/22 01:33:48;;;;;;;12.35;8.05;;;12.50;99.90;;;;;;4901889;29;20392;-72
2022/06/22 01:36:17;;;;;;;11.05;8.32;;;12.50;99.90;;;;;;4901958;29;20052;-73
2022/06/22 01:38:42;;;;;;;11.05;7.47;;;12.40;99.90;;;;;;4901263;29;20060;-72
2022/06/22 01:41:11;;;;;;;9.85;7.57;;;12.40;99.90;;;;;;4901229;29;20049;-72
2022/06/22 01:43:39;;;;;;;10.43;7.60;;;12.40;99.90;;;;;;4901221;29;20155;-72
2022/06/22 01:46:18;;;;;;;8.48;6.85;;;12.30;99.90;;;;;;4900235;29;20420;-72
2022/06/22 01:49:09;;;;;;;9.38;6.82;;;12.30;99.90;;;;;;4901639;29;20044;-72
2022/06/22 01:51:45;;;;;;;11.25;7.63;;;12.30;99.90;;;;;;4901605;29;20049;-73
2022/06/22 01:54:16;;;;;;;10.10;7.07;;;12.20;99.90;;;;;;4901868;29;20052;-73
2022/06/22 01:57:11;;;;;;;9.07;7.30;;;12.20;99.90;;;;;;4901557;29;20044;-73
2022/06/22 01:59:46;;;;;;;10.43;7.00;;;12.10;99.90;;;;;;4898591;29;20064;-72
2022/06/22 02:02:24;;;;;;;10.07;7.43;;;12.10;99.90;;;;;;4901644;29;20388;-73
2022/06/22 02:05:16;;;;;;;9.63;7.65;;;12.10;99.90;;;;;;4901207;29;20055;-73
2022/06/22 02:07:50;;;;;;;11.55;7.88;;;12.10;99.90;;;;;;4900868;29;20048;-73
2022/06/22 02:10:39;;;;;;;11.02;6.95;;;12.00;99.90;;;;;;4900824;29;20059;-73
2022/06/22 02:13:29;;;;;;;9.32;7.30;;;12.00;99.90;;;;;;4900733;29;20052;-73
2022/06/22 02:16:23;;;;;;;11.68;7.63;;;12.00;99.90;;;;;;4900538;29;20084;-73
2022/06/22 02:19:06;;;;;;;9.63;7.40;;;12.00;99.90;;;;;;4901446;29;20048;-73
2022/06/22 02:21:53;;;;;;;10.90;6.75;;;11.90;99.90;;;;;;4900577;29;20130;-73
2022/06/22 02:24:33;;;;;;;10.32;6.30;;;11.90;99.90;;;;;;4900597;29;20044;-73
2022/06/22 02:27:02;;;;;;;9.15;6.68;;;11.90;99.90;;;;;;4900565;29;20088;-73
2022/06/22 02:29:34;;;;;;;7.93;6.25;;;11.90;99.90;;;;;;4899730;29;20048;-73
2022/06/22 02:32:03;;;;;;;9.47;6.27;;;11.80;99.90;;;;;;4900175;29;20556;-72
2022/06/22 02:34:31;;;;;;;9.75;6.78;;;11.80;99.90;;;;;;4900045;29;20057;-73
2022/06/22 02:37:00;;;;;;;8.85;6.18;;;11.80;99.90;;;;;;4899164;29;20109;-72
2022/06/22 02:39:29;;;;;;;9.07;6.60;;;11.70;99.90;;;;;;4900496;29;20128;-73
2022/06/22 02:44:42;;;;;;;8.68;6.25;;;11.60;99.90;;;;;;4900484;29;20159;-73
2022/06/22 02:47:27;;;;;;;8.90;6.30;;;11.60;99.90;;;;;;4900177;29;20493;-73
2022/06/22 02:49:55;;;;;;;7.10;5.90;;;11.60;99.90;;;;;;4899762;29;20493;-72
2022/06/22 02:52:23;;;;;;;10.30;6.28;;;11.50;99.90;;;;;;4899833;29;20481;-74
2022/06/22 02:54:53;;;;;;;10.45;6.22;;;11.50;99.90;;;;;;4899923;29;20055;-74
2022/06/22 02:57:29;;;;;;;10.05;6.13;;;11.40;99.90;;;;;;4899922;29;20049;-75
2022/06/22 02:59:56;;;;;;;7.63;5.97;;;11.40;99.90;;;;;;4900342;29;20111;-74
2022/06/22 03:02:25;;;;;;;7.78;5.82;;;11.40;99.90;;;;;;4899455;29;20048;-74
2022/06/22 03:04:54;;;;;;;7.35;5.57;;;11.30;99.90;;;;;;4899736;29;20068;-74
2022/06/22 03:07:21;;;;;;;10.68;5.72;;;11.30;99.90;;;;;;4899641;29;20055;-74
2022/06/22 03:09:49;;;;;;;7.40;5.32;;;11.30;99.90;;;;;;4904610;29;20055;-74
2022/06/22 03:12:15;;;;;;;7.07;5.00;;;11.20;99.90;;;;;;4901197;29;20076;-74
2022/06/22 03:14:55;;;;;;;5.07;4.05;;;11.20;99.90;;;;;;4901050;29;20087;-74
2022/06/22 03:17:47;;;;;;;3.88;3.10;;;11.20;99.90;;;;;;4900362;29;20132;-73
2022/06/22 03:20:16;;;;;;;4.85;3.33;;;11.10;99.90;;;;;;4881668;29;20060;-73
2022/06/22 03:22:53;;;;;;;4.13;3.28;;;11.10;99.90;;;;;;4898398;29;20060;-73
2022/06/22 03:25:35;;;;;;;4.65;3.63;;;11.10;99.90;;;;;;4898792;29;20067;-74
2022/06/22 03:28:15;;;;;;;10.48;3.35;;;11.10;99.90;;;;;;4899377;29;20056;-75
2022/06/22 03:31:05;;;;;;;12.40;4.75;;;11.10;99.90;;;;;;4899528;29;20052;-74
2022/06/22 03:33:39;;;;;;;3.33;3.00;;;11.10;99.90;;;;;;4867601;29;20068;-75
2022/06/22 03:36:12;;;;;;;5.00;4.43;;;11.10;99.90;;;;;;4898599;29;20057;-74
2022/06/22 03:38:50;;;;;;;5.10;4.43;;;11.10;99.90;;;;;;4899216;29;20055;-74
2022/06/22 03:41:23;;;;;;;4.60;3.92;;;11.10;99.90;;;;;;4899056;29;20056;-75
2022/06/22 03:43:59;;;;;;;4.85;4.05;;;11.10;99.90;;;;;;4897988;29;20048;-75
2022/06/22 03:46:25;;;;;;;6.03;4.82;;;11.10;99.90;;;;;;4898987;29;20092;-75
2022/06/22 03:49:06;;;;;;;4.80;4.35;;;11.10;99.90;;;;;;4898288;29;20064;-74
2022/06/22 03:51:48;;;;;;;4.32;3.92;;;11.10;99.90;;;;;;4898995;29;20044;-75
2022/06/22 03:54:28;;;;;;;4.57;4.07;;;11.20;99.90;;;;;;4898699;29;20500;-75
2022/06/22 03:56:57;;;;;;;4.90;3.90;;;11.20;99.90;;;;;;4899258;29;20123;-75
2022/06/22 03:59:23;;;;;;;6.68;5.13;;;11.20;99.90;;;;;;4897965;29;20044;-74
2022/06/22 04:01:50;;;;;;;7.20;5.03;;;11.30;99.90;;;;;;4898353;29;20048;-75
2022/06/22 04:04:15;;;;;;;5.97;5.10;;;11.40;99.90;;;;;;4898413;29;20056;-75
2022/06/22 04:06:46;;;;;;;5.65;4.90;;;11.40;99.90;;;;;;4898921;29;20113;-72
2022/06/22 04:09:21;;;;;;;5.90;5.30;;;11.50;99.90;;;;;;4898883;29;20053;-72
2022/06/22 04:12:11;;;;;;;50.60;7.78;;;11.50;99.90;;;;;;4898486;29;20500;-74
2022/06/22 04:14:47;;;;;;;68.38;9.68;;;11.50;99.90;;;;;;4898237;29;20061;-74
2022/06/22 04:17:33;;;;;;;44.90;8.90;;;11.40;99.90;;;;;;4897868;29;20064;-74
2022/06/22 04:20:11;;;;;;;98.35;11.98;;;11.30;99.90;;;;;;4898738;29;20048;-74
2022/06/22 04:22:41;;;;;;;75.88;11.73;;;11.30;99.90;;;;;;4898113;29;20064;-74
2022/06/22 04:25:20;;;;;;;30.08;9.57;;;11.20;99.90;;;;;;4899279;29;20053;-74
2022/06/22 04:27:48;;;;;;;49.65;11.57;;;11.20;99.90;;;;;;4899264;29;20048;-74
2022/06/22 04:30:20;;;;;;;12.85;9.25;;;11.20;99.90;;;;;;4899165;29;20056;-74
2022/06/22 04:33:06;;;;;;;12.43;8.55;;;11.30;99.90;;;;;;4898546;29;20140;-74
2022/06/22 04:36:01;;;;;;;9.73;7.78;;;11.40;99.90;;;;;;4899038;29;20087;-74
2022/06/22 04:38:45;;;;;;;9.13;6.57;;;11.40;99.90;;;;;;4899260;29;20163;-74
2022/06/22 04:41:31;;;;;;;10.95;7.25;;;11.40;99.90;;;;;;4897057;29;20049;-74
2022/06/22 04:44:03;;;;;;;8.07;6.63;;;11.50;99.90;;;;;;4898924;29;20131;-74
2022/06/22 04:46:40;;;;;;;8.98;6.97;;;11.60;99.90;;;;;;4897442;29;20148;-74
2022/06/22 04:49:30;;;;;;;10.00;7.18;;;11.60;99.90;;;;;;4898663;29;20077;-74
2022/06/22 04:52:17;;;;;;;9.38;7.07;;;11.70;99.90;;;;;;4899752;29;20500;-74
2022/06/22 04:54:45;;;;;;;9.32;7.32;;;11.80;99.90;;;;;;4901492;29;20056;-73
2022/06/22 04:57:21;;;;;;;11.43;8.00;;;11.90;99.90;;;;;;4902066;29;20056;-74
2022/06/22 04:59:47;;;;;;;12.30;7.57;;;12.00;99.90;;;;;;4902030;29;20048;-73
2022/06/22 05:02:17;;;;;;;10.82;8.27;;;12.10;99.90;;;;;;4901994;29;20401;-73
2022/06/22 05:04:49;;;;;;;13.85;8.68;;;12.20;99.90;;;;;;4903002;29;20103;-73
2022/06/22 05:07:20;;;;;;;12.80;8.07;;;12.30;99.90;;;;;;4901916;29;20481;-74
2022/06/22 05:10:10;;;;;;;10.80;7.45;;;12.40;99.90;;;;;;4901925;29;20052;-73
2022/06/22 05:12:52;;;;;;;12.00;8.27;;;12.40;99.90;;;;;;4901124;29;20115;-73
2022/06/22 05:15:26;;;;;;;13.18;8.70;;;12.50;99.90;;;;;;4900862;29;20481;-73
2022/06/22 05:17:52;;;;;;;13.48;7.70;;;12.60;99.90;;;;;;4901361;29;20410;-74
2022/06/22 05:20:32;;;;;;;12.43;8.02;;;12.70;99.90;;;;;;4902059;29;20044;-74
2022/06/22 05:23:01;;;;;;;11.13;7.47;;;12.70;99.90;;;;;;4901746;29;20045;-74
2022/06/22 05:25:29;;;;;;;13.68;8.40;;;12.80;99.90;;;;;;4901857;29;20127;-74
2022/06/22 05:28:19;;;;;;;11.10;8.13;;;12.90;99.90;;;;;;4902056;29;20092;-74
2022/06/22 05:30:53;;;;;;;9.48;7.22;;;12.90;99.90;;;;;;4899558;29;20469;-74
2022/06/22 05:33:23;;;;;;;10.10;7.38;;;13.00;99.90;;;;;;4902001;29;20136;-74
2022/06/22 05:36:05;;;;;;;11.68;7.50;;;13.10;99.90;;;;;;4901331;29;20099;-74
2022/06/22 05:38:35;;;;;;;11.00;8.00;;;13.20;99.90;;;;;;4901414;29;20092;-73
2022/06/22 05:41:04;;;;;;;9.63;7.90;;;13.20;99.90;;;;;;4901734;29;20400;-79
2022/06/22 05:43:31;;;;;;;12.20;8.45;;;13.30;99.90;;;;;;4900313;29;20500;-76
2022/06/22 05:46:02;;;;;;;12.90;9.18;;;13.40;99.90;;;;;;4901181;29;20140;-75
2022/06/22 05:48:31;;;;;;;11.65;8.00;;;13.40;99.90;;;;;;4901562;29;20481;-75
2022/06/22 05:51:01;;;;;;;12.15;9.40;;;13.50;99.90;;;;;;4900210;29;20064;-76
2022/06/22 05:53:31;;;;;;;11.95;8.73;;;13.50;99.90;;;;;;4901383;29;20134;-75
2022/06/22 05:56:07;;;;;;;11.82;8.60;;;13.60;99.90;;;;;;4901192;29;20060;-75
2022/06/22 05:58:39;;;;;;;13.90;9.57;;;13.60;99.90;;;;;;4901029;29;20489;-76
2022/06/22 06:01:16;;;;;;;13.88;9.25;;;13.70;99.90;;;;;;4900866;29;20080;-76
2022/06/22 06:03:53;;;;;;;14.73;10.02;;;13.80;99.90;;;;;;4900093;29;20064;-75
2022/06/22 06:06:25;;;;;;;14.30;11.32;;;13.90;99.90;;;;;;4899729;29;20049;-75
2022/06/22 06:08:57;;;;;;;16.45;11.18;;;13.90;99.90;;;;;;4900139;29;20089;-75
2022/06/22 06:11:32;;;;;;;18.05;14.45;;;14.00;99.90;;;;;;4901398;29;20124;-76
2022/06/22 06:14:07;;;;;;;15.43;13.80;;;14.00;99.90;;;;;;4884652;29;20140;-75
2022/06/22 06:16:55;;;;;;;16.85;15.10;;;14.10;99.90;;;;;;4901014;29;20412;-76
2022/06/22 06:19:25;;;;;;;17.40;13.95;;;14.20;99.90;;;;;;4901188;29;20067;-75
2022/06/22 06:21:56;;;;;;;12.23;10.25;;;14.20;99.90;;;;;;4899370;29;20060;-75
2022/06/22 06:27:34;;;;;;;12.27;9.57;;;14.20;99.90;;;;;;4900796;29;20077;-76
2022/06/22 06:27:38;;;;;;;11.40;10.25;;;14.30;99.90;;;;;;4902993;29;20108;-75
2022/06/22 06:30:13;;;;;;;11.15;10.00;;;14.40;99.90;;;;;;4901494;29;20057;-75
2022/06/22 06:32:47;;;;;;;9.23;8.23;;;14.40;99.90;;;;;;4901575;29;20052;-75
2022/06/22 06:35:28;;;;;;;12.45;9.75;;;14.50;99.90;;;;;;4903613;29;20053;-75
2022/06/22 06:38:23;;;;;;;9.57;8.63;;;14.60;99.90;;;;;;4903916;29;20119;-75
2022/06/22 06:41:01;;;;;;;13.68;8.63;;;14.70;99.90;;;;;;4900337;29;20049;-77
2022/06/22 06:43:48;;;;;;;10.75;7.55;;;14.70;99.90;;;;;;4900224;29;20049;-75
2022/06/22 06:46:28;;;;;;;13.20;8.48;;;14.80;99.90;;;;;;4900177;29;20053;-75
2022/06/22 06:49:04;;;;;;;9.15;7.50;;;14.90;99.90;;;;;;4899982;29;20064;-75
2022/06/22 06:51:33;;;;;;;8.98;6.80;;;15.00;99.90;;;;;;4899777;29;20059;-75
2022/06/22 06:54:25;;;;;;;7.03;6.32;;;15.00;99.90;;;;;;4900833;29;20143;-75
2022/06/22 06:57:09;;;;;;;7.28;4.80;;;15.10;99.90;;;;;;4894251;29;20061;-76
2022/06/22 06:59:35;;;;;;;8.18;4.55;;;15.10;99.90;;;;;;4899831;29;20081;-75
2022/06/22 07:02:11;;;;;;;6.80;5.18;;;15.10;99.90;;;;;;4899698;29;20036;-75
2022/06/22 07:04:37;;;;;;;7.38;4.20;;;15.20;99.90;;;;;;4882401;29;20501;-75
2022/06/22 07:07:19;;;;;;;7.10;4.30;;;15.30;99.90;;;;;;4898432;29;20052;-75
2022/06/22 07:09:49;;;;;;;6.10;3.42;;;15.30;99.90;;;;;;4899039;29;20064;-75
2022/06/22 07:12:35;;;;;;;4.63;3.30;;;15.40;99.90;;;;;;4899629;29;20470;-75
2022/06/22 07:15:04;;;;;;;6.43;3.92;;;15.50;99.90;;;;;;4900139;29;20048;-75
2022/06/22 07:17:32;;;;;;;8.93;6.07;;;15.60;99.90;;;;;;4899186;29;20521;-76
2022/06/22 07:20:30;;;;;;;7.45;5.03;;;15.60;99.90;;;;;;4900012;29;20088;-74
2022/06/22 07:23:12;;;;;;;9.25;5.57;;;15.70;99.90;;;;;;4899194;29;20560;-76
2022/06/22 07:25:44;;;;;;;8.43;5.90;;;15.70;99.90;;;;;;4900012;29;20052;-76
2022/06/22 07:28:13;;;;;;;10.55;6.32;;;15.80;99.90;;;;;;4900020;29;20051;-76
2022/06/22 07:30:55;;;;;;;7.60;5.90;;;15.80;99.90;;;;;;4898087;29;20056;-75
2022/06/22 07:33:46;;;;;;;7.90;5.75;;;15.90;99.90;;;;;;4900281;29;20079;-75
2022/06/22 07:36:31;;;;;;;6.13;5.00;;;16.00;99.90;;;;;;4899987;29;20116;-75
2022/06/22 07:39:06;;;;;;;10.27;6.82;;;16.10;99.90;;;;;;4899870;29;20060;-75
2022/06/22 07:41:33;;;;;;;8.40;5.50;;;16.20;99.90;;;;;;4898417;29;20051;-76
2022/06/22 07:44:04;;;;;;;7.53;5.32;;;16.20;99.90;;;;;;4899177;29;20180;-77
2022/06/22 07:46:49;;;;;;;8.50;5.38;;;16.30;99.90;;;;;;4898209;29;20041;-77
2022/06/22 07:49:39;;;;;;;9.50;4.80;;;16.30;99.90;;;;;;4899798;29;20052;-76
2022/06/22 07:52:13;;;;;;;7.65;6.57;;;16.50;99.90;;;;;;4898484;29;20059;-75
2022/06/22 07:55:01;;;;;;;10.93;6.25;;;16.50;99.90;;;;;;4899063;29;20104;-75
2022/06/22 07:57:34;;;;;;;9.48;5.68;;;16.60;99.90;;;;;;4899903;29;20377;-76
2022/06/22 08:00:17;;;;;;;12.45;5.93;;;16.60;99.90;;;;;;4898947;29;20397;-75
2022/06/22 08:03:21;;;;;;;6.78;5.20;;;16.80;99.90;;;;;;4898993;29;20500;-76
2022/06/22 08:05:50;;;;;;;7.18;4.65;;;16.40;99.90;;;;;;4882259;29;20056;-76
2022/06/22 08:08:31;;;;;;;7.45;5.18;;;16.90;99.90;;;;;;4897978;29;20060;-74
2022/06/22 08:11:09;;;;;;;6.25;4.22;;;16.90;99.90;;;;;;4898903;29;20489;-75
2022/06/22 08:13:47;;;;;;;8.77;4.57;;;17.00;99.90;;;;;;4898762;29;20055;-74
2022/06/22 08:16:19;;;;;;;6.80;3.88;;;17.10;99.90;;;;;;4898622;29;20118;-75
2022/06/22 08:18:48;;;;;;;6.18;4.10;;;17.10;99.90;;;;;;4898144;29;20386;-75
2022/06/22 08:21:17;;;;;;;6.85;4.55;;;17.20;99.90;;;;;;4899409;29;20128;-74
2022/06/22 08:23:44;;;;;;;7.25;3.00;;;17.20;99.90;;;;;;4897474;29;20091;-74
2022/06/22 08:26:30;;;;;;;4.80;3.55;;;17.30;99.90;;;;;;4896584;29;20108;-74
2022/06/22 08:28:57;;;;;;;8.93;3.60;;;17.30;99.90;;;;;;4898478;29;20049;-74
2022/06/22 08:31:28;;;;;;;7.38;4.13;;;17.30;99.90;;;;;;4898538;29;20044;-74
2022/06/22 08:33:58;;;;;;;6.75;4.18;;;17.40;99.90;;;;;;4898640;29;20405;-74
2022/06/22 08:36:34;;;;;;;8.35;5.25;;;17.40;99.90;;;;;;4899145;29;20055;-74
2022/06/22 08:39:13;;;;;;;7.15;4.85;;;17.50;99.90;;;;;;4898166;29;20430;-74
2022/06/22 08:42:27;;;;;;;5.90;3.80;;;17.60;99.90;;;;;;4899323;29;20056;-75
2022/06/22 08:44:59;;;;;;;10.93;5.40;;;17.60;99.90;;;;;;4881550;29;20071;-74
2022/06/22 08:48:03;;;;;;;9.48;6.13;;;17.80;99.90;;;;;;4898281;29;20372;-73
2022/06/22 08:51:06;;;;;;;8.43;5.43;;;17.90;99.90;;;;;;4898986;29;20109;-74
2022/06/22 08:53:34;;;;;;;;;;;17.90;99.90;;;;;;4899140;29;20056;-74
2022/06/22 08:56:13;;;;;;;9.23;5.18;;;17.90;99.90;;;;;;4898373;29;19923;-73
2022/06/22 08:58:55;;;;;;;10.77;6.00;;;17.90;99.90;;;;;;4898404;29;20053;-73
2022/06/22 09:01:27;;;;;;;7.45;5.18;;;17.80;99.90;;;;;;4898017;29;20055;-73
2022/06/22 09:03:52;;;;;;;8.40;4.75;;;17.90;99.90;;;;;;4898421;29;20061;-73
2022/06/22 09:06:48;;;;;;;6.80;5.07;;;18.00;99.90;;;;;;4898489;29;20146;-73
2022/06/22 09:09:43;;;;;;;10.43;5.45;;;18.00;99.90;;;;;;4898080;29;20087;-74
2022/06/22 09:12:21;;;;;;;9.48;5.60;;;18.10;99.90;;;;;;4898791;29;20442;-71
2022/06/22 09:14:55;;;;;;;8.45;5.07;;;18.10;99.90;;;;;;4897631;29;20120;-72
2022/06/22 09:17:46;;;;;;;8.70;4.88;;;18.20;99.90;;;;;;4897399;29;20139;-72
2022/06/22 09:20:36;;;;;;;11.30;6.22;;;18.30;99.90;;;;;;4896088;29;20171;-73
2022/06/22 09:23:17;;;;;;;8.57;5.30;;;18.40;99.90;;;;;;4897753;29;20055;-71
2022/06/22 09:25:49;;;;;;;6.90;4.70;;;18.40;99.90;;;;;;4896900;29;20053;-72
2022/06/22 09:28:45;;;;;;;9.15;5.18;;;18.50;99.90;;;;;;4897313;29;20049;-72
2022/06/22 09:31:42;;;;;;;9.02;4.55;;;18.60;99.90;;;;;;4897394;29;20101;-72
2022/06/22 09:34:45;;;;;;;8.32;4.40;;;18.70;99.90;;;;;;4897317;29;20105;-73
2022/06/22 09:37:17;;;;;;;8.00;4.03;;;18.70;99.90;;;;;;4898011;29;20081;-73
2022/06/22 09:40:05;;;;;;;5.28;3.83;;;18.80;99.90;;;;;;4898993;29;20059;-73
2022/06/22 09:42:42;;;;;;;9.13;4.30;;;18.80;99.90;;;;;;4900712;29;20044;-74
2022/06/22 09:45:20;;;;;;;5.70;3.70;;;18.80;99.90;;;;;;4901219;29;20095;-73
2022/06/22 09:47:58;;;;;;;9.55;4.32;;;18.80;99.90;;;;;;4900838;29;20048;-73
2022/06/22 09:50:41;;;;;;;7.18;3.70;;;18.80;99.90;;;;;;4901163;29;20153;-73
2022/06/22 09:53:36;;;;;;;13.18;4.07;;;18.90;99.90;;;;;;4902663;29;20049;-73
2022/06/22 09:56:27;;;;;;;5.70;3.88;;;18.90;99.90;;;;;;4896173;29;20094;-74
2022/06/22 09:59:11;;;;;;;6.65;4.25;;;18.90;99.90;;;;;;4895894;29;20052;-73
2022/06/22 10:02:00;;;;;;;8.02;5.07;;;19.00;99.90;;;;;;4900192;29;20041;-72
2022/06/22 10:04:38;;;;;;;6.60;4.43;;;19.20;99.90;;;;;;4900658;29;20115;-73
2022/06/22 10:07:09;;;;;;;5.35;3.95;;;19.30;99.90;;;;;;4900368;29;20067;-72
2022/06/22 10:09:57;;;;;;;5.37;3.63;;;19.40;99.90;;;;;;4900349;29;20077;-73
2022/06/22 10:12:29;;;;;;;8.50;4.43;;;19.60;99.90;;;;;;4898722;29;20052;-72
2022/06/22 10:15:23;;;;;;;7.70;4.85;;;19.60;99.90;;;;;;4900121;29;20088;-73
2022/06/22 10:17:56;;;;;;;6.85;4.90;;;19.60;99.90;;;;;;4899977;29;20573;-73
2022/06/22 10:20:52;;;;;;;9.82;5.10;;;19.50;99.90;;;;;;4900292;29;20045;-72
2022/06/22 10:23:32;;;;;;;8.45;4.88;;;19.50;99.90;;;;;;4899943;29;20051;-73
2022/06/22 10:26:31;;;;;;;8.07;5.10;;;19.50;99.90;;;;;;4900172;29;20052;-73
2022/06/22 10:29:17;;;;;;;7.65;4.25;;;19.50;99.90;;;;;;4914063;29;20524;-73
2022/06/22 10:32:02;;;;;;;7.53;4.57;;;19.50;99.90;;;;;;4900230;29;20055;-74
2022/06/22 10:34:28;;;;;;;10.73;5.90;;;19.40;99.90;;;;;;4899756;29;20049;-73
2022/06/22 10:37:09;;;;;;;7.93;5.00;;;19.30;99.90;;;;;;4899939;29;20371;-74
2022/06/22 10:39:41;;;;;;;8.63;4.50;;;19.30;99.90;;;;;;4899801;29;20048;-73
2022/06/22 10:45:20;;;;;;;;;;;19.50;99.90;;;;;;4899862;29;20289;-74
2022/06/22 10:48:08;;;;;;;7.93;4.38;;;19.60;99.90;;;;;;4899244;29;19927;-73
2022/06/22 10:50:37;;;;;;;8.23;4.97;;;19.70;99.90;;;;;;4898697;29;20055;-73
2022/06/22 10:53:27;;;;;;;8.77;4.90;;;19.80;99.90;;;;;;4898996;29;20044;-72
2022/06/22 10:56:05;;;;;;;7.30;4.97;;;19.80;99.90;;;;;;4898507;29;20059;-73
2022/06/22 10:58:40;;;;;;;8.68;4.68;;;19.90;99.90;;;;;;4899844;29;20059;-73
2022/06/22 11:01:24;;;;;;;7.82;4.55;;;19.90;99.90;;;;;;4898502;29;20079;-73
2022/06/22 11:04:11;;;;;;;9.68;4.38;;;19.90;99.90;;;;;;4899197;29;20482;-74
2022/06/22 11:07:05;;;;;;;10.40;4.70;;;20.00;99.90;;;;;;4899735;29;20052;-74
2022/06/22 11:09:37;;;;;;;8.18;4.63;;;20.00;99.90;;;;;;4899833;29;20057;-74
2022/06/22 11:12:22;;;;;;;;;;;20.10;99.90;;;;;;4900192;29;20040;-74
2022/06/22 11:15:10;;;;;;;10.02;4.80;;;20.10;99.90;;;;;;4898974;29;19930;-74
2022/06/22 11:18:15;;;;;;;6.97;4.80;;;20.10;99.90;;;;;;4898868;29;20049;-74
2022/06/22 11:21:22;;;;;;;8.75;4.53;;;20.20;99.90;;;;;;4899318;29;20139;-75
2022/06/22 11:24:00;;;;;;;6.20;4.00;;;20.20;99.90;;;;;;4898855;29;20045;-73
2022/06/22 11:32:29;;;;;;;5.75;3.00;;;20.40;99.90;;;;;;4899427;29;20119;-73
2022/06/22 11:35:02;;;;;;;4.47;2.42;;;20.50;99.90;;;;;;4899872;29;20048;-74
2022/06/22 11:37:42;;;;;;;5.88;3.40;;;20.50;99.90;;;;;;4900145;29;20068;-75
2022/06/22 11:40:42;;;;;;;9.27;2.63;;;20.60;99.90;;;;;;4899863;29;20143;-74
2022/06/22 11:43:36;;;;;;;3.80;2.17;;;20.60;99.90;;;;;;4899203;29;20059;-75
2022/06/22 11:46:26;;;;;;;6.03;3.08;;;20.60;99.90;;;;;;4899719;29;20397;-74
2022/06/22 11:49:14;;;;;;;4.72;2.50;;;20.70;99.90;;;;;;4899135;29;20049;-75
2022/06/22 11:51:39;;;;;;;5.70;3.80;;;20.80;99.90;;;;;;4898063;29;20056;-75
2022/06/22 11:54:40;;;;;;;4.03;2.58;;;20.80;99.90;;;;;;4899086;29;20056;-76
2022/06/22 11:57:48;;;;;;;5.43;2.80;;;20.80;99.90;;;;;;4898901;29;20056;-75
2022/06/22 12:00:24;;;;;;;4.68;2.40;;;20.80;99.90;;;;;;4897325;29;20104;-75
2022/06/22 12:03:26;;;;;;;5.80;2.95;;;20.90;99.90;;;;;;4898788;29;20053;-75
2022/06/22 12:06:01;;;;;;;5.47;3.10;;;20.90;99.90;;;;;;4899418;29;20056;-75
2022/06/22 12:08:46;;;;;;;4.55;2.50;;;20.90;99.90;;;;;;4897601;29;20056;-76
2022/06/22 12:11:33;;;;;;;5.53;2.25;;;20.90;99.90;;;;;;4899898;29;20087;-75
2022/06/22 12:17:34;;;;;;;6.05;1.90;;;20.90;99.90;;;;;;4898761;29;20057;-75
2022/06/22 12:20:20;;;;;;;3.13;1.98;;;21.00;99.90;;;;;;4898889;29;20052;-75
2022/06/22 12:23:04;;;;;;;5.45;2.00;;;21.10;98.90;;;;;;4899179;29;20044;-75
2022/06/22 12:25:33;;;;;;;3.00;2.22;;;21.20;98.50;;;;;;4898799;29;20092;-76
2022/06/22 12:28:08;;;;;;;4.00;2.53;;;21.20;98.10;;;;;;4898612;29;20055;-75
2022/06/22 12:30:52;;;;;;;4.82;1.73;;;21.20;98.00;;;;;;4898552;29;20057;-75
2022/06/22 12:33:36;;;;;;;4.22;2.00;;;21.30;97.10;;;;;;4898571;29;20056;-75
2022/06/22 12:36:04;;;;;;;4.25;2.30;;;21.20;96.30;;;;;;4897990;29;20104;-75
2022/06/22 12:38:40;;;;;;;5.60;2.22;;;21.30;95.90;;;;;;4899177;29;20049;-75
2022/06/22 12:41:48;;;;;;;6.30;1.90;;;21.20;95.50;;;;;;4898478;29;20103;-75
2022/06/22 12:44:35;;;;;;;3.17;1.73;;;21.20;95.00;;;;;;4899174;29;20124;-75
2022/06/22 12:47:13;;;;;;;3.03;1.70;;;21.20;95.50;;;;;;4898194;29;20057;-75
2022/06/22 12:50:07;;;;;;;6.40;2.10;;;21.20;95.70;;;;;;4899013;29;20068;-75
2022/06/22 12:52:41;;;;;;;4.85;2.00;;;21.30;95.80;;;;;;4898437;29;20056;-75
2022/06/22 12:55:13;;;;;;;3.67;1.55;;;21.30;95.50;;;;;;4899293;29;20052;-75
2022/06/22 12:57:47;;;;;;;;;;;21.30;95.40;;;;;;4899679;29;20478;-75
2022/06/22 13:00:16;;;;;;;2.60;1.60;;;21.30;96.30;;;;;;4897975;29;20317;-75
2022/06/22 13:02:44;;;;;;;4.20;1.92;;;21.40;95.00;;;;;;4898255;29;20045;-75
2022/06/22 13:05:21;;;;;;;3.42;2.38;;;21.40;94.90;;;;;;4898845;29;20052;-77
2022/06/22 13:07:59;;;;;;;2.45;1.50;;;21.50;94.50;;;;;;4897174;29;20049;-75
2022/06/22 13:10:30;;;;;;;4.70;1.80;;;21.50;94.40;;;;;;4898875;29;20132;-75
2022/06/22 13:13:19;;;;;;;2.72;1.40;;;21.60;94.70;;;;;;4899429;29;20049;-76
2022/06/22 13:15:52;;;;;;;3.97;2.05;;;21.60;95.30;;;;;;4900769;29;20131;-75
2022/06/22 13:18:30;;;;;;;4.88;2.47;;;21.70;94.90;;;;;;4902676;29;20071;-76
2022/06/22 13:21:21;;;;;;;3.63;1.80;;;21.70;95.80;;;;;;4901779;29;20108;-76
2022/06/22 13:24:28;;;;;;;5.03;2.80;;;21.80;96.00;;;;;;4901960;29;20108;-76
2022/06/22 13:26:59;;;;;;;4.22;2.42;;;21.90;96.30;;;;;;4898391;29;20139;-76
2022/06/22 13:29:43;;;;;;;4.35;1.95;;;22.00;96.00;;;;;;4901965;29;20145;-76
2022/06/22 13:32:12;;;;;;;6.50;2.58;;;22.00;96.70;;;;;;4902197;29;20425;-77
2022/06/22 13:34:40;;;;;;;4.53;2.60;;;22.10;96.50;;;;;;4902324;29;20059;-76
2022/06/22 13:37:33;;;;;;;4.28;2.30;;;22.10;96.40;;;;;;4902053;29;20048;-76
2022/06/22 13:40:29;;;;;;;8.23;2.45;;;22.10;96.90;;;;;;4900076;29;20379;-78
2022/06/22 13:43:23;;;;;;;4.10;2.75;;;22.10;96.80;;;;;;4902274;29;20049;-76
2022/06/22 13:45:55;;;;;;;6.05;2.55;;;22.10;96.60;;;;;;4901435;29;20057;-76
2022/06/22 13:48:47;;;;;;;4.00;2.80;;;22.10;96.60;;;;;;4900658;29;20052;-75
2022/06/22 13:51:34;;;;;;;4.95;2.65;;;22.10;96.60;;;;;;4891415;29;20052;-76
2022/06/22 13:54:27;;;;;;;5.70;2.65;;;22.10;96.70;;;;;;4901722;29;20116;-75
2022/06/22 13:57:01;;;;;;;7.30;3.17;;;22.10;96.80;;;;;;4901227;29;20087;-75
2022/06/22 13:59:39;;;;;;;6.32;3.42;;;22.10;96.50;;;;;;4901364;29;20084;-76
2022/06/22 14:02:11;;;;;;;5.85;3.45;;;22.20;96.60;;;;;;4901786;29;20055;-76